Home > Products > Valid Products > FWO

000
SHUS65 KGJT 012022
FWOGJT

DAILY FIRE WEATHER OBSERVATION
NATIONAL WEATHER SERVICE GRAND JUNCTION CO
221 PM MDT WED JUL 1 2015

STATE OF THE WEATHER (W)               2
DRY BULB TEMPERATURE                   91   DEGREES FAHRENHEIT
RELATIVE HUMIDITY (RH)                 22   PERCENT
LIGHTNING ACTIVITY LEVEL
  (LAL - MIDNIGHT TO 2 PM)             2
WIND DIRECTION                         180  DEGREES (C IF CALM)
WIND SPEED                             8    MPH
MAX TEMP (2 PM - 2 PM)                 101  DEGREES FAHRENHEIT
MIN TEMP (2 PM - 2 PM)                 65   DEGREES FAHRENHEIT
MAX RH (2 PM - 2 PM)                   47   PERCENT
MIN RH (2 PM - 2 PM)                   12   PERCENT
PCPN DURATION                          0.3  HOURS
PCPN AMT (2 PM - 2 PM)                 T    INCHES
LAL (2 PM - 2 PM)                      4

$$

METAR KGJT 011953Z 20007KT 10SM CLR 33/08 A3006 RMK AO2 SLP098
      T03280083





000
SHUS65 KGJT 012022
FWOGJT

DAILY FIRE WEATHER OBSERVATION
NATIONAL WEATHER SERVICE GRAND JUNCTION CO
221 PM MDT WED JUL 1 2015

STATE OF THE WEATHER (W)               2
DRY BULB TEMPERATURE                   91   DEGREES FAHRENHEIT
RELATIVE HUMIDITY (RH)                 22   PERCENT
LIGHTNING ACTIVITY LEVEL
  (LAL - MIDNIGHT TO 2 PM)             2
WIND DIRECTION                         180  DEGREES (C IF CALM)
WIND SPEED                             8    MPH
MAX TEMP (2 PM - 2 PM)                 101  DEGREES FAHRENHEIT
MIN TEMP (2 PM - 2 PM)                 65   DEGREES FAHRENHEIT
MAX RH (2 PM - 2 PM)                   47   PERCENT
MIN RH (2 PM - 2 PM)                   12   PERCENT
PCPN DURATION                          0.3  HOURS
PCPN AMT (2 PM - 2 PM)                 T    INCHES
LAL (2 PM - 2 PM)                      4

$$

METAR KGJT 011953Z 20007KT 10SM CLR 33/08 A3006 RMK AO2 SLP098
      T03280083




000
SHUS65 KGJT 302016
FWOGJT

DAILY FIRE WEATHER OBSERVATION
NATIONAL WEATHER SERVICE GRAND JUNCTION CO
212 PM MDT TUE JUN 30 2015

STATE OF THE WEATHER (W)               1
DRY BULB TEMPERATURE                   96   DEGREES FAHRENHEIT
RELATIVE HUMIDITY (RH)                 16   PERCENT
LIGHTNING ACTIVITY LEVEL
  (LAL - MIDNIGHT TO 2 PM)             1
WIND DIRECTION                         270  DEGREES (C IF CALM)
WIND SPEED                             5    MPH
MAX TEMP (2 PM - 2 PM)                 99   DEGREES FAHRENHEIT
MIN TEMP (2 PM - 2 PM)                 69   DEGREES FAHRENHEIT
MAX RH (2 PM - 2 PM)                   39   PERCENT
MIN RH (2 PM - 2 PM)                   13   PERCENT
PCPN DURATION                          0.0  HOURS
PCPN AMT (2 PM - 2 PM)                 0.0  INCHES
LAL (2 PM - 2 PM)                      2

$$

METAR KGJT 301953Z 26004KT 10SM CLR 36/06 A3005 RMK AO2 SLP093
      T03560056




000
SHUS65 KGJT 292015
FWOGJT

DAILY FIRE WEATHER OBSERVATION
NATIONAL WEATHER SERVICE GRAND JUNCTION CO
212 PM MDT MON JUN 29 2015

STATE OF THE WEATHER (W)               0
DRY BULB TEMPERATURE                   94   DEGREES FAHRENHEIT
RELATIVE HUMIDITY (RH)                 18   PERCENT
LIGHTNING ACTIVITY LEVEL
  (LAL - MIDNIGHT TO 2 PM)             1
WIND DIRECTION                         225  DEGREES (C IF CALM)
WIND SPEED                             8    MPH
MAX TEMP (2 PM - 2 PM)                 99   DEGREES FAHRENHEIT
MIN TEMP (2 PM - 2 PM)                 71   DEGREES FAHRENHEIT
MAX RH (2 PM - 2 PM)                   37   PERCENT
MIN RH (2 PM - 2 PM)                   11   PERCENT
PCPN DURATION                          0.0  HOURS
PCPN AMT (2 PM - 2 PM)                 0.0  INCHES
LAL (2 PM - 2 PM)                      3

$$

METAR KGJT 291953Z 23007KT 10SM CLR 34/07 A3011 RMK AO2 SLP108
      T03440067




    US Dept of Commerce
    National Oceanic and Atmospheric Administration
    National Weather Service
    1325 East West Highway
    Silver Spring, MD 20910
    Page Author: NWS Internet Services Team
Disclaimer
Information Quality
Credits
Glossary
Privacy Policy
Freedom of Information Act (FOIA)
About Us
Career Opportunities